Terminal Aerodrome Forecast
Issued by NWS Charleston, WV

Current Version | Previous Version | Graphics & Text | Print | Product List | Glossary On
Versions: 1 2 3 4 5 6 7 8 9 10 11 12 13 14 15 16 17 18 19 20 21
653
FTUS41 KRLX 240236 AAA
TAFHTS
TAF AMD
KHTS 240236Z 2403/2424 00000KT P6SM SKC
     FM240700 00000KT 4SM BR SKC
     FM240800 00000KT 2SM BR SCT001
     FM240900 00000KT 1/2SM FG VV001
     FM241200 00000KT 2SM BR BKN001
     FM241330 22002KT 5SM BR SCT002
     FM241400 23004KT P6SM FEW060=

USA.gov is the U.S. government's official web portal to all federal, state and local government web resources and services.